sensor_id;sensor_type;location;lat;lon;timestamp;P1;durP1;ratioP1;P2;durP2;ratioP2
146;SDS011;45999;48.808;9.182;2023-04-24T00:00:22;1.80;;;0.60;;
146;SDS011;45999;48.808;9.182;2023-04-24T00:02:49;1.20;;;0.87;;
146;SDS011;45999;48.808;9.182;2023-04-24T00:05:15;0.63;;;0.63;;
146;SDS011;45999;48.808;9.182;2023-04-24T00:07:43;1.67;;;0.80;;
146;SDS011;45999;48.808;9.182;2023-04-24T00:10:10;1.17;;;0.70;;
146;SDS011;45999;48.808;9.182;2023-04-24T00:12:37;0.63;;;0.60;;
146;SDS011;45999;48.808;9.182;2023-04-24T00:15:04;1.00;;;0.80;;
146;SDS011;45999;48.808;9.182;2023-04-24T00:17:31;1.13;;;0.83;;
146;SDS011;45999;48.808;9.182;2023-04-24T00:19:57;1.00;;;0.60;;
146;SDS011;45999;48.808;9.182;2023-04-24T00:22:27;0.77;;;0.67;;
146;SDS011;45999;48.808;9.182;2023-04-24T00:24:53;1.40;;;0.63;;
146;SDS011;45999;48.808;9.182;2023-04-24T00:27:20;1.93;;;0.77;;
146;SDS011;45999;48.808;9.182;2023-04-24T00:29:46;0.50;;;0.50;;
146;SDS011;45999;48.808;9.182;2023-04-24T00:32:13;0.90;;;0.70;;
146;SDS011;45999;48.808;9.182;2023-04-24T00:34:39;0.73;;;0.63;;
146;SDS011;45999;48.808;9.182;2023-04-24T00:37:05;1.30;;;0.60;;
146;SDS011;45999;48.808;9.182;2023-04-24T00:39:32;3.03;;;0.60;;
146;SDS011;45999;48.808;9.182;2023-04-24T00:41:58;2.27;;;0.53;;
146;SDS011;45999;48.808;9.182;2023-04-24T00:44:24;1.10;;;0.50;;
146;SDS011;45999;48.808;9.182;2023-04-24T00:46:51;1.70;;;0.50;;
146;SDS011;45999;48.808;9.182;2023-04-24T00:49:20;0.70;;;0.70;;
146;SDS011;45999;48.808;9.182;2023-04-24T00:51:46;1.00;;;0.53;;
146;SDS011;45999;48.808;9.182;2023-04-24T00:54:14;2.43;;;0.60;;
146;SDS011;45999;48.808;9.182;2023-04-24T00:56:41;1.07;;;0.70;;
146;SDS011;45999;48.808;9.182;2023-04-24T00:59:08;2.93;;;0.70;;
146;SDS011;45999;48.808;9.182;2023-04-24T01:01:34;0.60;;;0.60;;
146;SDS011;45999;48.808;9.182;2023-04-24T01:04:01;1.60;;;0.60;;
146;SDS011;45999;48.808;9.182;2023-04-24T01:06:28;1.63;;;0.60;;
146;SDS011;45999;48.808;9.182;2023-04-24T01:08:56;1.70;;;0.60;;
146;SDS011;45999;48.808;9.182;2023-04-24T01:11:22;1.00;;;0.53;;
146;SDS011;45999;48.808;9.182;2023-04-24T01:13:48;0.90;;;0.70;;
146;SDS011;45999;48.808;9.182;2023-04-24T01:16:15;0.77;;;0.53;;
146;SDS011;45999;48.808;9.182;2023-04-24T01:18:42;0.93;;;0.50;;
146;SDS011;45999;48.808;9.182;2023-04-24T01:21:08;0.97;;;0.70;;
146;SDS011;45999;48.808;9.182;2023-04-24T01:23:35;2.20;;;0.80;;
146;SDS011;45999;48.808;9.182;2023-04-24T01:26:01;1.13;;;0.80;;
146;SDS011;45999;48.808;9.182;2023-04-24T01:28:27;2.50;;;0.90;;
146;SDS011;45999;48.808;9.182;2023-04-24T01:30:54;1.23;;;0.70;;
146;SDS011;45999;48.808;9.182;2023-04-24T01:33:20;1.20;;;0.80;;
146;SDS011;45999;48.808;9.182;2023-04-24T01:35:47;0.63;;;0.60;;
146;SDS011;45999;48.808;9.182;2023-04-24T01:38:13;2.20;;;0.70;;
146;SDS011;45999;48.808;9.182;2023-04-24T01:40:39;0.50;;;0.50;;
146;SDS011;45999;48.808;9.182;2023-04-24T01:43:06;1.53;;;0.43;;
146;SDS011;45999;48.808;9.182;2023-04-24T01:45:33;2.50;;;0.93;;
146;SDS011;45999;48.808;9.182;2023-04-24T01:48:00;1.33;;;0.70;;
146;SDS011;45999;48.808;9.182;2023-04-24T01:50:26;1.93;;;0.80;;
146;SDS011;45999;48.808;9.182;2023-04-24T01:52:52;1.40;;;0.77;;
146;SDS011;45999;48.808;9.182;2023-04-24T01:55:19;1.23;;;0.63;;
146;SDS011;45999;48.808;9.182;2023-04-24T01:57:45;1.47;;;0.60;;
146;SDS011;45999;48.808;9.182;2023-04-24T02:00:11;2.00;;;0.60;;
146;SDS011;45999;48.808;9.182;2023-04-24T02:02:38;1.97;;;0.70;;
146;SDS011;45999;48.808;9.182;2023-04-24T02:05:08;0.93;;;0.70;;
146;SDS011;45999;48.808;9.182;2023-04-24T02:07:34;1.27;;;0.70;;
146;SDS011;45999;48.808;9.182;2023-04-24T02:10:01;1.40;;;0.60;;
146;SDS011;45999;48.808;9.182;2023-04-24T02:12:28;1.20;;;0.63;;
146;SDS011;45999;48.808;9.182;2023-04-24T02:14:55;2.17;;;0.77;;
146;SDS011;45999;48.808;9.182;2023-04-24T02:17:21;1.00;;;0.70;;
146;SDS011;45999;48.808;9.182;2023-04-24T02:19:47;0.73;;;0.57;;
146;SDS011;45999;48.808;9.182;2023-04-24T02:22:14;0.80;;;0.50;;
146;SDS011;45999;48.808;9.182;2023-04-24T02:24:40;0.80;;;0.60;;
146;SDS011;45999;48.808;9.182;2023-04-24T02:27:06;0.93;;;0.60;;
146;SDS011;45999;48.808;9.182;2023-04-24T02:29:33;0.73;;;0.73;;
146;SDS011;45999;48.808;9.182;2023-04-24T02:31:59;1.50;;;0.60;;
146;SDS011;45999;48.808;9.182;2023-04-24T02:34:25;1.93;;;0.60;;
146;SDS011;45999;48.808;9.182;2023-04-24T02:36:51;0.60;;;0.50;;
146;SDS011;45999;48.808;9.182;2023-04-24T02:39:18;2.17;;;0.70;;
146;SDS011;45999;48.808;9.182;2023-04-24T02:41:45;0.50;;;0.50;;
146;SDS011;45999;48.808;9.182;2023-04-24T02:44:11;1.23;;;0.90;;
146;SDS011;45999;48.808;9.182;2023-04-24T02:46:37;2.40;;;0.70;;
146;SDS011;45999;48.808;9.182;2023-04-24T02:49:06;2.03;;;0.70;;
146;SDS011;45999;48.808;9.182;2023-04-24T02:51:32;2.30;;;0.67;;
146;SDS011;45999;48.808;9.182;2023-04-24T02:53:58;1.07;;;0.77;;
146;SDS011;45999;48.808;9.182;2023-04-24T02:56:24;2.00;;;0.70;;
146;SDS011;45999;48.808;9.182;2023-04-24T02:58:51;1.43;;;0.93;;
146;SDS011;45999;48.808;9.182;2023-04-24T03:01:17;1.37;;;0.70;;
146;SDS011;45999;48.808;9.182;2023-04-24T03:03:43;1.30;;;0.67;;
146;SDS011;45999;48.808;9.182;2023-04-24T03:06:10;1.50;;;0.80;;
146;SDS011;45999;48.808;9.182;2023-04-24T03:08:36;1.57;;;0.67;;
146;SDS011;45999;48.808;9.182;2023-04-24T03:11:02;1.53;;;0.90;;
146;SDS011;45999;48.808;9.182;2023-04-24T03:13:29;3.40;;;1.10;;
146;SDS011;45999;48.808;9.182;2023-04-24T03:15:55;0.63;;;0.63;;
146;SDS011;45999;48.808;9.182;2023-04-24T03:18:21;1.00;;;0.70;;
146;SDS011;45999;48.808;9.182;2023-04-24T03:20:47;2.93;;;1.10;;
146;SDS011;45999;48.808;9.182;2023-04-24T03:23:14;0.70;;;0.70;;
146;SDS011;45999;48.808;9.182;2023-04-24T03:25:40;2.73;;;0.70;;
146;SDS011;45999;48.808;9.182;2023-04-24T03:28:07;1.40;;;0.80;;
146;SDS011;45999;48.808;9.182;2023-04-24T03:30:33;1.03;;;0.70;;
146;SDS011;45999;48.808;9.182;2023-04-24T03:33:00;2.90;;;1.00;;
146;SDS011;45999;48.808;9.182;2023-04-24T03:35:26;1.23;;;0.80;;
146;SDS011;45999;48.808;9.182;2023-04-24T03:37:52;2.53;;;0.90;;
146;SDS011;45999;48.808;9.182;2023-04-24T03:40:19;2.20;;;0.80;;
146;SDS011;45999;48.808;9.182;2023-04-24T03:42:45;2.00;;;0.77;;
146;SDS011;45999;48.808;9.182;2023-04-24T03:45:11;1.30;;;0.70;;
146;SDS011;45999;48.808;9.182;2023-04-24T03:47:37;2.43;;;0.83;;
146;SDS011;45999;48.808;9.182;2023-04-24T03:50:04;1.10;;;0.80;;
146;SDS011;45999;48.808;9.182;2023-04-24T03:52:30;2.73;;;0.80;;
146;SDS011;45999;48.808;9.182;2023-04-24T03:54:57;1.43;;;0.70;;
146;SDS011;45999;48.808;9.182;2023-04-24T03:57:23;0.90;;;0.80;;
146;SDS011;45999;48.808;9.182;2023-04-24T03:59:49;0.90;;;0.70;;
146;SDS011;45999;48.808;9.182;2023-04-24T04:02:16;1.23;;;0.87;;
146;SDS011;45999;48.808;9.182;2023-04-24T04:04:42;3.77;;;0.77;;
146;SDS011;45999;48.808;9.182;2023-04-24T04:07:08;2.50;;;0.80;;
146;SDS011;45999;48.808;9.182;2023-04-24T04:09:36;0.80;;;0.73;;
146;SDS011;45999;48.808;9.182;2023-04-24T04:12:02;3.07;;;0.83;;
146;SDS011;45999;48.808;9.182;2023-04-24T04:14:28;1.30;;;0.90;;
146;SDS011;45999;48.808;9.182;2023-04-24T04:16:55;1.13;;;1.00;;
146;SDS011;45999;48.808;9.182;2023-04-24T04:19:21;0.70;;;0.60;;
146;SDS011;45999;48.808;9.182;2023-04-24T04:21:47;1.37;;;0.90;;
146;SDS011;45999;48.808;9.182;2023-04-24T04:24:17;2.03;;;0.70;;
146;SDS011;45999;48.808;9.182;2023-04-24T04:26:44;0.83;;;0.70;;
146;SDS011;45999;48.808;9.182;2023-04-24T04:29:11;2.53;;;0.70;;
146;SDS011;45999;48.808;9.182;2023-04-24T04:31:38;1.03;;;0.60;;
146;SDS011;45999;48.808;9.182;2023-04-24T04:34:04;2.00;;;0.80;;
146;SDS011;45999;48.808;9.182;2023-04-24T04:36:30;0.87;;;0.80;;
146;SDS011;45999;48.808;9.182;2023-04-24T04:38:57;1.80;;;0.70;;
146;SDS011;45999;48.808;9.182;2023-04-24T04:41:25;1.37;;;1.00;;
146;SDS011;45999;48.808;9.182;2023-04-24T04:43:51;1.13;;;1.00;;
146;SDS011;45999;48.808;9.182;2023-04-24T04:46:17;1.13;;;1.03;;
146;SDS011;45999;48.808;9.182;2023-04-24T04:48:43;1.07;;;0.97;;
146;SDS011;45999;48.808;9.182;2023-04-24T04:51:10;0.83;;;0.70;;
146;SDS011;45999;48.808;9.182;2023-04-24T04:53:37;1.63;;;0.83;;
146;SDS011;45999;48.808;9.182;2023-04-24T04:56:04;1.13;;;0.70;;
146;SDS011;45999;48.808;9.182;2023-04-24T04:58:30;0.80;;;0.80;;
146;SDS011;45999;48.808;9.182;2023-04-24T05:00:56;0.70;;;0.70;;
146;SDS011;45999;48.808;9.182;2023-04-24T05:03:23;1.07;;;0.93;;
146;SDS011;45999;48.808;9.182;2023-04-24T05:05:49;2.37;;;0.90;;
146;SDS011;45999;48.808;9.182;2023-04-24T05:08:16;1.07;;;0.90;;
146;SDS011;45999;48.808;9.182;2023-04-24T05:10:42;0.77;;;0.60;;
146;SDS011;45999;48.808;9.182;2023-04-24T05:13:08;0.90;;;0.80;;
146;SDS011;45999;48.808;9.182;2023-04-24T05:15:34;1.40;;;0.70;;
146;SDS011;45999;48.808;9.182;2023-04-24T05:18:00;1.33;;;0.73;;
146;SDS011;45999;48.808;9.182;2023-04-24T05:20:27;0.80;;;0.80;;
146;SDS011;45999;48.808;9.182;2023-04-24T05:22:53;1.83;;;0.70;;
146;SDS011;45999;48.808;9.182;2023-04-24T05:25:19;0.90;;;0.70;;
146;SDS011;45999;48.808;9.182;2023-04-24T05:27:46;0.83;;;0.77;;
146;SDS011;45999;48.808;9.182;2023-04-24T05:30:12;0.90;;;0.90;;
146;SDS011;45999;48.808;9.182;2023-04-24T05:32:39;2.03;;;1.00;;
146;SDS011;45999;48.808;9.182;2023-04-24T05:35:05;0.70;;;0.70;;
146;SDS011;45999;48.808;9.182;2023-04-24T05:37:31;1.60;;;0.80;;
146;SDS011;45999;48.808;9.182;2023-04-24T05:39:58;1.00;;;0.90;;
146;SDS011;45999;48.808;9.182;2023-04-24T05:42:24;1.13;;;0.70;;
146;SDS011;45999;48.808;9.182;2023-04-24T05:44:50;0.80;;;0.80;;
146;SDS011;45999;48.808;9.182;2023-04-24T05:47:18;1.93;;;0.83;;
146;SDS011;45999;48.808;9.182;2023-04-24T05:49:46;0.83;;;0.83;;
146;SDS011;45999;48.808;9.182;2023-04-24T05:52:12;0.73;;;0.67;;
146;SDS011;45999;48.808;9.182;2023-04-24T05:54:39;2.20;;;0.70;;
146;SDS011;45999;48.808;9.182;2023-04-24T05:57:05;1.50;;;1.07;;
146;SDS011;45999;48.808;9.182;2023-04-24T05:59:36;1.33;;;0.73;;
146;SDS011;45999;48.808;9.182;2023-04-24T06:02:02;1.10;;;1.00;;
146;SDS011;45999;48.808;9.182;2023-04-24T06:04:29;1.93;;;0.80;;
146;SDS011;45999;48.808;9.182;2023-04-24T06:06:55;1.80;;;0.90;;
146;SDS011;45999;48.808;9.182;2023-04-24T06:09:22;1.23;;;1.03;;
146;SDS011;45999;48.808;9.182;2023-04-24T06:11:48;1.50;;;1.00;;
146;SDS011;45999;48.808;9.182;2023-04-24T06:14:15;1.23;;;1.00;;
146;SDS011;45999;48.808;9.182;2023-04-24T06:16:42;1.00;;;1.00;;
146;SDS011;45999;48.808;9.182;2023-04-24T06:19:08;1.03;;;0.93;;
146;SDS011;45999;48.808;9.182;2023-04-24T06:21:34;1.20;;;1.10;;
146;SDS011;45999;48.808;9.182;2023-04-24T06:24:00;1.47;;;1.03;;
146;SDS011;45999;48.808;9.182;2023-04-24T06:26:27;1.63;;;1.40;;
146;SDS011;45999;48.808;9.182;2023-04-24T06:28:53;1.40;;;1.03;;
146;SDS011;45999;48.808;9.182;2023-04-24T06:31:20;1.53;;;1.17;;
146;SDS011;45999;48.808;9.182;2023-04-24T06:33:47;2.53;;;1.10;;
146;SDS011;45999;48.808;9.182;2023-04-24T06:36:14;1.17;;;0.80;;
146;SDS011;45999;48.808;9.182;2023-04-24T06:38:40;1.03;;;1.00;;
146;SDS011;45999;48.808;9.182;2023-04-24T06:41:07;1.20;;;1.10;;
146;SDS011;45999;48.808;9.182;2023-04-24T06:43:33;1.40;;;1.00;;
146;SDS011;45999;48.808;9.182;2023-04-24T06:45:59;1.00;;;0.87;;
146;SDS011;45999;48.808;9.182;2023-04-24T06:48:28;2.07;;;1.10;;
146;SDS011;45999;48.808;9.182;2023-04-24T06:50:54;1.13;;;1.00;;
146;SDS011;45999;48.808;9.182;2023-04-24T06:53:20;1.17;;;0.90;;
146;SDS011;45999;48.808;9.182;2023-04-24T06:55:47;1.20;;;1.10;;
146;SDS011;45999;48.808;9.182;2023-04-24T06:58:13;1.80;;;1.20;;
146;SDS011;45999;48.808;9.182;2023-04-24T07:00:41;1.20;;;1.10;;
146;SDS011;45999;48.808;9.182;2023-04-24T07:03:07;1.50;;;1.23;;
146;SDS011;45999;48.808;9.182;2023-04-24T07:05:33;1.40;;;1.30;;
146;SDS011;45999;48.808;9.182;2023-04-24T07:08:00;3.07;;;1.27;;
146;SDS011;45999;48.808;9.182;2023-04-24T07:10:26;1.40;;;1.27;;
146;SDS011;45999;48.808;9.182;2023-04-24T07:12:54;2.30;;;1.20;;
146;SDS011;45999;48.808;9.182;2023-04-24T07:15:20;3.17;;;1.20;;
146;SDS011;45999;48.808;9.182;2023-04-24T07:17:47;1.30;;;1.20;;
146;SDS011;45999;48.808;9.182;2023-04-24T07:20:13;1.60;;;1.20;;
146;SDS011;45999;48.808;9.182;2023-04-24T07:22:40;2.50;;;1.30;;
146;SDS011;45999;48.808;9.182;2023-04-24T07:25:07;4.00;;;1.10;;
146;SDS011;45999;48.808;9.182;2023-04-24T07:27:33;2.43;;;1.50;;
146;SDS011;45999;48.808;9.182;2023-04-24T07:30:00;2.00;;;1.20;;
146;SDS011;45999;48.808;9.182;2023-04-24T07:32:27;1.57;;;1.10;;
146;SDS011;45999;48.808;9.182;2023-04-24T07:34:53;1.80;;;1.10;;
146;SDS011;45999;48.808;9.182;2023-04-24T07:37:20;1.13;;;1.00;;
146;SDS011;45999;48.808;9.182;2023-04-24T07:39:46;3.90;;;1.20;;
146;SDS011;45999;48.808;9.182;2023-04-24T07:42:12;2.10;;;0.97;;
146;SDS011;45999;48.808;9.182;2023-04-24T07:44:38;2.47;;;1.00;;
146;SDS011;45999;48.808;9.182;2023-04-24T07:47:05;1.17;;;1.10;;
146;SDS011;45999;48.808;9.182;2023-04-24T07:49:31;1.20;;;0.93;;
146;SDS011;45999;48.808;9.182;2023-04-24T07:51:59;1.67;;;0.90;;
146;SDS011;45999;48.808;9.182;2023-04-24T07:54:26;3.13;;;1.07;;
146;SDS011;45999;48.808;9.182;2023-04-24T07:56:53;0.90;;;0.90;;
146;SDS011;45999;48.808;9.182;2023-04-24T07:59:19;2.87;;;1.10;;
146;SDS011;45999;48.808;9.182;2023-04-24T08:01:46;1.37;;;0.83;;
146;SDS011;45999;48.808;9.182;2023-04-24T08:04:12;1.13;;;0.80;;
146;SDS011;45999;48.808;9.182;2023-04-24T08:06:38;2.10;;;0.93;;
146;SDS011;45999;48.808;9.182;2023-04-24T08:09:04;1.80;;;0.90;;
146;SDS011;45999;48.808;9.182;2023-04-24T08:11:31;4.23;;;1.00;;
146;SDS011;45999;48.808;9.182;2023-04-24T08:13:57;2.27;;;0.97;;
146;SDS011;45999;48.808;9.182;2023-04-24T08:16:24;1.17;;;1.10;;
146;SDS011;45999;48.808;9.182;2023-04-24T08:18:51;3.27;;;1.10;;
146;SDS011;45999;48.808;9.182;2023-04-24T08:21:18;1.60;;;0.90;;
146;SDS011;45999;48.808;9.182;2023-04-24T08:23:45;1.17;;;1.10;;
146;SDS011;45999;48.808;9.182;2023-04-24T08:26:12;4.03;;;1.03;;
146;SDS011;45999;48.808;9.182;2023-04-24T08:28:38;3.67;;;1.10;;
146;SDS011;45999;48.808;9.182;2023-04-24T08:31:04;1.27;;;1.07;;
146;SDS011;45999;48.808;9.182;2023-04-24T08:33:31;1.70;;;1.10;;
146;SDS011;45999;48.808;9.182;2023-04-24T08:36:02;1.93;;;0.97;;
146;SDS011;45999;48.808;9.182;2023-04-24T08:38:29;1.87;;;1.10;;
146;SDS011;45999;48.808;9.182;2023-04-24T08:40:56;1.57;;;1.10;;
146;SDS011;45999;48.808;9.182;2023-04-24T08:43:22;2.70;;;1.10;;
146;SDS011;45999;48.808;9.182;2023-04-24T08:45:49;1.87;;;0.97;;
146;SDS011;45999;48.808;9.182;2023-04-24T08:48:15;2.17;;;1.20;;
146;SDS011;45999;48.808;9.182;2023-04-24T08:50:42;1.40;;;0.90;;
146;SDS011;45999;48.808;9.182;2023-04-24T08:53:10;2.10;;;1.20;;
146;SDS011;45999;48.808;9.182;2023-04-24T08:55:37;3.40;;;1.30;;
146;SDS011;45999;48.808;9.182;2023-04-24T08:58:03;2.13;;;1.40;;
146;SDS011;45999;48.808;9.182;2023-04-24T09:00:29;3.37;;;1.10;;
146;SDS011;45999;48.808;9.182;2023-04-24T09:02:56;1.00;;;0.97;;
146;SDS011;45999;48.808;9.182;2023-04-24T09:05:23;1.53;;;1.10;;
146;SDS011;45999;48.808;9.182;2023-04-24T09:07:52;1.17;;;1.00;;
146;SDS011;45999;48.808;9.182;2023-04-24T09:10:19;2.17;;;1.10;;
146;SDS011;45999;48.808;9.182;2023-04-24T09:12:46;1.43;;;1.17;;
146;SDS011;45999;48.808;9.182;2023-04-24T09:15:12;1.33;;;1.03;;
146;SDS011;45999;48.808;9.182;2023-04-24T09:17:38;1.77;;;1.13;;
146;SDS011;45999;48.808;9.182;2023-04-24T09:20:05;3.20;;;1.10;;
146;SDS011;45999;48.808;9.182;2023-04-24T09:22:31;1.70;;;1.10;;
146;SDS011;45999;48.808;9.182;2023-04-24T09:25:16;3.50;;;1.27;;
146;SDS011;45999;48.808;9.182;2023-04-24T09:27:42;4.83;;;0.90;;
146;SDS011;45999;48.808;9.182;2023-04-24T09:30:09;2.43;;;1.20;;
146;SDS011;45999;48.808;9.182;2023-04-24T09:32:36;3.43;;;0.90;;
146;SDS011;45999;48.808;9.182;2023-04-24T09:35:10;1.50;;;1.00;;
146;SDS011;45999;48.808;9.182;2023-04-24T09:37:40;1.53;;;1.03;;
146;SDS011;45999;48.808;9.182;2023-04-24T09:40:10;2.77;;;1.13;;
146;SDS011;45999;48.808;9.182;2023-04-24T09:42:37;2.50;;;1.40;;
146;SDS011;45999;48.808;9.182;2023-04-24T09:45:06;3.23;;;1.40;;
146;SDS011;45999;48.808;9.182;2023-04-24T09:47:37;2.07;;;1.00;;
146;SDS011;45999;48.808;9.182;2023-04-24T09:50:10;1.00;;;0.90;;
146;SDS011;45999;48.808;9.182;2023-04-24T09:52:44;1.20;;;1.00;;
146;SDS011;45999;48.808;9.182;2023-04-24T09:55:11;1.17;;;1.07;;
146;SDS011;45999;48.808;9.182;2023-04-24T09:57:46;3.67;;;0.97;;
146;SDS011;45999;48.808;9.182;2023-04-24T10:00:13;2.30;;;1.00;;
146;SDS011;45999;48.808;9.182;2023-04-24T10:02:39;1.77;;;1.37;;
146;SDS011;45999;48.808;9.182;2023-04-24T10:05:05;1.73;;;1.20;;
146;SDS011;45999;48.808;9.182;2023-04-24T10:07:32;2.73;;;0.83;;
146;SDS011;45999;48.808;9.182;2023-04-24T10:09:59;1.87;;;0.87;;
146;SDS011;45999;48.808;9.182;2023-04-24T10:12:25;3.07;;;0.87;;
146;SDS011;45999;48.808;9.182;2023-04-24T10:14:53;1.33;;;0.80;;
146;SDS011;45999;48.808;9.182;2023-04-24T10:17:20;1.43;;;1.00;;
146;SDS011;45999;48.808;9.182;2023-04-24T10:19:47;1.10;;;1.00;;
146;SDS011;45999;48.808;9.182;2023-04-24T10:22:13;0.97;;;0.80;;
146;SDS011;45999;48.808;9.182;2023-04-24T10:24:41;1.63;;;0.80;;
146;SDS011;45999;48.808;9.182;2023-04-24T10:27:08;1.20;;;0.80;;
146;SDS011;45999;48.808;9.182;2023-04-24T10:29:35;2.60;;;1.00;;
146;SDS011;45999;48.808;9.182;2023-04-24T10:32:01;2.47;;;1.00;;
146;SDS011;45999;48.808;9.182;2023-04-24T10:34:28;1.67;;;1.00;;
146;SDS011;45999;48.808;9.182;2023-04-24T10:36:54;1.50;;;1.10;;
146;SDS011;45999;48.808;9.182;2023-04-24T10:39:22;1.00;;;0.90;;
146;SDS011;45999;48.808;9.182;2023-04-24T10:41:49;1.43;;;1.17;;
146;SDS011;45999;48.808;9.182;2023-04-24T10:44:15;2.50;;;0.90;;
146;SDS011;45999;48.808;9.182;2023-04-24T10:46:45;2.03;;;1.20;;
146;SDS011;45999;48.808;9.182;2023-04-24T10:49:12;3.53;;;1.00;;
146;SDS011;45999;48.808;9.182;2023-04-24T10:51:48;1.03;;;0.93;;
146;SDS011;45999;48.808;9.182;2023-04-24T10:56:48;3.00;;;1.20;;
146;SDS011;45999;48.808;9.182;2023-04-24T10:59:23;3.03;;;1.13;;
146;SDS011;45999;48.808;9.182;2023-04-24T11:01:53;1.50;;;1.00;;
146;SDS011;45999;48.808;9.182;2023-04-24T11:04:28;2.13;;;1.03;;
146;SDS011;45999;48.808;9.182;2023-04-24T11:06:55;1.70;;;1.00;;
146;SDS011;45999;48.808;9.182;2023-04-24T11:09:21;0.93;;;0.93;;
146;SDS011;45999;48.808;9.182;2023-04-24T11:11:47;4.20;;;1.00;;
146;SDS011;45999;48.808;9.182;2023-04-24T11:14:14;4.63;;;1.20;;
146;SDS011;45999;48.808;9.182;2023-04-24T11:16:44;1.43;;;1.00;;
146;SDS011;45999;48.808;9.182;2023-04-24T11:21:44;4.43;;;1.17;;
146;SDS011;45999;48.808;9.182;2023-04-24T11:27:05;1.37;;;0.87;;
146;SDS011;45999;48.808;9.182;2023-04-24T11:29:38;6.00;;;1.30;;
146;SDS011;45999;48.808;9.182;2023-04-24T11:32:24;1.83;;;1.10;;
146;SDS011;45999;48.808;9.182;2023-04-24T11:34:58;1.77;;;1.10;;
146;SDS011;45999;48.808;9.182;2023-04-24T11:37:44;2.73;;;1.33;;
146;SDS011;45999;48.808;9.182;2023-04-24T11:40:12;1.40;;;1.10;;
146;SDS011;45999;48.808;9.182;2023-04-24T11:42:48;3.43;;;1.13;;
146;SDS011;45999;48.808;9.182;2023-04-24T11:47:47;2.00;;;1.10;;
146;SDS011;45999;48.808;9.182;2023-04-24T11:50:14;1.43;;;0.80;;
146;SDS011;45999;48.808;9.182;2023-04-24T11:52:41;2.07;;;1.10;;
146;SDS011;45999;48.808;9.182;2023-04-24T11:55:12;2.33;;;1.10;;
146;SDS011;45999;48.808;9.182;2023-04-24T11:57:49;1.10;;;1.03;;
146;SDS011;45999;48.808;9.182;2023-04-24T12:00:20;1.80;;;0.90;;
146;SDS011;45999;48.808;9.182;2023-04-24T12:02:46;0.80;;;0.80;;
146;SDS011;45999;48.808;9.182;2023-04-24T12:05:19;1.80;;;0.87;;
146;SDS011;45999;48.808;9.182;2023-04-24T12:07:45;1.10;;;0.80;;
146;SDS011;45999;48.808;9.182;2023-04-24T12:10:12;1.10;;;0.90;;
146;SDS011;45999;48.808;9.182;2023-04-24T12:12:39;1.10;;;1.00;;
146;SDS011;45999;48.808;9.182;2023-04-24T12:15:06;2.93;;;1.23;;
146;SDS011;45999;48.808;9.182;2023-04-24T12:17:33;1.97;;;1.10;;
146;SDS011;45999;48.808;9.182;2023-04-24T12:20:05;3.50;;;1.37;;
146;SDS011;45999;48.808;9.182;2023-04-24T12:22:52;3.70;;;1.13;;
146;SDS011;45999;48.808;9.182;2023-04-24T12:25:20;0.90;;;0.90;;
146;SDS011;45999;48.808;9.182;2023-04-24T12:27:47;1.30;;;1.00;;
146;SDS011;45999;48.808;9.182;2023-04-24T12:30:17;1.20;;;1.03;;
146;SDS011;45999;48.808;9.182;2023-04-24T12:32:47;2.07;;;1.10;;
146;SDS011;45999;48.808;9.182;2023-04-24T12:35:18;4.00;;;1.13;;
146;SDS011;45999;48.808;9.182;2023-04-24T12:37:45;3.90;;;0.93;;
146;SDS011;45999;48.808;9.182;2023-04-24T12:40:12;2.60;;;1.20;;
146;SDS011;45999;48.808;9.182;2023-04-24T12:42:45;2.07;;;1.10;;
146;SDS011;45999;48.808;9.182;2023-04-24T12:45:12;2.43;;;1.10;;
146;SDS011;45999;48.808;9.182;2023-04-24T12:47:39;2.00;;;0.90;;
146;SDS011;45999;48.808;9.182;2023-04-24T12:50:09;0.83;;;0.83;;
146;SDS011;45999;48.808;9.182;2023-04-24T12:52:36;1.37;;;0.90;;
146;SDS011;45999;48.808;9.182;2023-04-24T12:55:02;1.13;;;1.03;;
146;SDS011;45999;48.808;9.182;2023-04-24T12:57:29;1.43;;;1.10;;
146;SDS011;45999;48.808;9.182;2023-04-24T12:59:59;1.50;;;1.23;;
146;SDS011;45999;48.808;9.182;2023-04-24T13:02:26;4.07;;;1.50;;
146;SDS011;45999;48.808;9.182;2023-04-24T13:04:54;3.97;;;1.13;;
146;SDS011;45999;48.808;9.182;2023-04-24T13:07:21;1.87;;;1.10;;
146;SDS011;45999;48.808;9.182;2023-04-24T13:09:47;1.53;;;1.00;;
146;SDS011;45999;48.808;9.182;2023-04-24T13:12:14;1.10;;;0.93;;
146;SDS011;45999;48.808;9.182;2023-04-24T13:14:40;1.90;;;1.07;;
146;SDS011;45999;48.808;9.182;2023-04-24T13:17:06;1.13;;;1.07;;
146;SDS011;45999;48.808;9.182;2023-04-24T13:19:37;1.43;;;1.10;;
146;SDS011;45999;48.808;9.182;2023-04-24T13:22:04;1.40;;;1.30;;
146;SDS011;45999;48.808;9.182;2023-04-24T13:24:31;3.57;;;1.37;;
146;SDS011;45999;48.808;9.182;2023-04-24T13:26:57;3.43;;;1.67;;
146;SDS011;45999;48.808;9.182;2023-04-24T13:29:23;3.77;;;1.80;;
146;SDS011;45999;48.808;9.182;2023-04-24T13:31:50;3.13;;;1.40;;
146;SDS011;45999;48.808;9.182;2023-04-24T13:34:17;1.73;;;1.57;;
146;SDS011;45999;48.808;9.182;2023-04-24T13:36:43;7.70;;;1.60;;
146;SDS011;45999;48.808;9.182;2023-04-24T13:39:09;1.13;;;1.10;;
146;SDS011;45999;48.808;9.182;2023-04-24T13:41:36;1.57;;;1.47;;
146;SDS011;45999;48.808;9.182;2023-04-24T13:44:03;1.37;;;1.17;;
146;SDS011;45999;48.808;9.182;2023-04-24T13:46:29;1.30;;;1.20;;
146;SDS011;45999;48.808;9.182;2023-04-24T13:48:55;1.40;;;1.30;;
146;SDS011;45999;48.808;9.182;2023-04-24T13:51:23;7.63;;;2.00;;
146;SDS011;45999;48.808;9.182;2023-04-24T13:53:51;3.07;;;1.50;;
146;SDS011;45999;48.808;9.182;2023-04-24T13:56:18;1.83;;;1.23;;
146;SDS011;45999;48.808;9.182;2023-04-24T13:58:45;1.33;;;0.80;;
146;SDS011;45999;48.808;9.182;2023-04-24T14:01:11;1.53;;;0.90;;
146;SDS011;45999;48.808;9.182;2023-04-24T14:03:38;1.10;;;1.00;;
146;SDS011;45999;48.808;9.182;2023-04-24T14:06:04;0.90;;;0.90;;
146;SDS011;45999;48.808;9.182;2023-04-24T14:08:31;0.97;;;0.90;;
146;SDS011;45999;48.808;9.182;2023-04-24T14:10:57;1.13;;;0.90;;
146;SDS011;45999;48.808;9.182;2023-04-24T14:13:23;1.00;;;1.00;;
146;SDS011;45999;48.808;9.182;2023-04-24T14:15:50;0.90;;;0.90;;
146;SDS011;45999;48.808;9.182;2023-04-24T14:18:17;2.70;;;1.20;;
146;SDS011;45999;48.808;9.182;2023-04-24T14:20:44;2.37;;;1.10;;
146;SDS011;45999;48.808;9.182;2023-04-24T14:23:10;1.47;;;1.00;;
146;SDS011;45999;48.808;9.182;2023-04-24T14:25:36;1.80;;;0.87;;
146;SDS011;45999;48.808;9.182;2023-04-24T14:28:02;1.07;;;1.00;;
146;SDS011;45999;48.808;9.182;2023-04-24T14:30:29;1.40;;;1.10;;
146;SDS011;45999;48.808;9.182;2023-04-24T14:32:55;1.17;;;1.17;;
146;SDS011;45999;48.808;9.182;2023-04-24T14:35:22;1.37;;;1.10;;
146;SDS011;45999;48.808;9.182;2023-04-24T14:37:48;1.30;;;1.13;;
146;SDS011;45999;48.808;9.182;2023-04-24T14:40:14;2.03;;;1.40;;
146;SDS011;45999;48.808;9.182;2023-04-24T14:42:41;2.23;;;1.37;;
146;SDS011;45999;48.808;9.182;2023-04-24T14:45:07;2.10;;;1.13;;
146;SDS011;45999;48.808;9.182;2023-04-24T14:47:33;2.87;;;2.60;;
146;SDS011;45999;48.808;9.182;2023-04-24T14:50:00;3.07;;;1.93;;
146;SDS011;45999;48.808;9.182;2023-04-24T14:52:26;2.33;;;1.30;;
146;SDS011;45999;48.808;9.182;2023-04-24T14:54:52;1.53;;;1.43;;
146;SDS011;45999;48.808;9.182;2023-04-24T14:57:18;1.97;;;1.40;;
146;SDS011;45999;48.808;9.182;2023-04-24T14:59:45;1.53;;;1.00;;
146;SDS011;45999;48.808;9.182;2023-04-24T15:02:11;1.27;;;1.17;;
146;SDS011;45999;48.808;9.182;2023-04-24T15:04:37;1.47;;;1.37;;
146;SDS011;45999;48.808;9.182;2023-04-24T15:07:03;1.60;;;1.43;;
146;SDS011;45999;48.808;9.182;2023-04-24T15:09:29;1.20;;;1.10;;
146;SDS011;45999;48.808;9.182;2023-04-24T15:11:57;2.10;;;1.80;;
146;SDS011;45999;48.808;9.182;2023-04-24T15:14:23;1.70;;;1.30;;
146;SDS011;45999;48.808;9.182;2023-04-24T15:16:50;1.63;;;1.50;;
146;SDS011;45999;48.808;9.182;2023-04-24T15:19:16;2.70;;;1.60;;
146;SDS011;45999;48.808;9.182;2023-04-24T15:21:42;1.40;;;1.30;;
146;SDS011;45999;48.808;9.182;2023-04-24T15:24:09;2.13;;;1.40;;